Observation data for Turkey on 01/18/2019      Previous  Date  Next       Current Mesonet Observations  Soil Data  Daily Summary Page  Observations in Plain Language
KTUR 180600Z 15008KT 06/02 A2998 RMK A01 T00560019  RH  078%=      5-min Rain = 0
KTUR 180605Z 15008KT 06/02 A2998 RMK A01 T00570019  RH  077%=      5-min Rain = 0
KTUR 180610Z 15007KT 06/02 A2998 RMK A01 T00560019  RH  078%=      5-min Rain = 0
KTUR 180615Z 15008KT 05/02 A2997 RMK A01 T00540018  RH  079%=      5-min Rain = 0
KTUR 180620Z 15007KT 05/02 A2997 RMK A01 T00530018  RH  079%=      5-min Rain = 0
KTUR 180625Z 15007KT 05/02 A2997 RMK A01 T00510018  RH  080%=      5-min Rain = 0
KTUR 180630Z 16006KT 05/02 A2996 RMK A01 T00500018  RH  081%=      5-min Rain = 0
KTUR 180635Z 15006KT 05/02 A2996 RMK A01 T00470016  RH  082%=      5-min Rain = 0
KTUR 180640Z 16006KT 05/02 A2996 RMK A01 T00470017  RH  082%=      5-min Rain = 0
KTUR 180645Z 16006KT 05/02 A2996 RMK A01 T00450016  RH  083%=      5-min Rain = 0
KTUR 180650Z 17006KT 05/02 A2996 RMK A01 T00450016  RH  083%=      5-min Rain = 0
KTUR 180655Z 18006KT 04/02 A2996 RMK A01 T00440017  RH  084%=      5-min Rain = 0
KTUR 180700Z 17006KT 05/02 A2996 RMK A01 T00470018  RH  083%=      5-min Rain = 0
KTUR 180705Z 16007KT 05/02 A2995 RMK A01 T00470018  RH  082%=      5-min Rain = 0
KTUR 180710Z 16007KT 05/02 A2995 RMK A01 T00470019  RH  083%=      5-min Rain = 0
KTUR 180715Z 16007KT 05/02 A2995 RMK A01 T00500020  RH  082%=      5-min Rain = 0
KTUR 180720Z 16008KT 05/02 A2995 RMK A01 T00520021  RH  082%=      5-min Rain = 0
KTUR 180725Z 17007KT 05/02 A2995 RMK A01 T00500020  RH  082%=      5-min Rain = 0
KTUR 180730Z 17008KT 05/02 A2994 RMK A01 T00460018  RH  083%=      5-min Rain = 0
KTUR 180735Z 18008KT 04/02 A2994 RMK A01 T00440018  RH  084%=      5-min Rain = 0
KTUR 180740Z 18008KT 04/02 A2993 RMK A01 T00440018  RH  084%=      5-min Rain = 0
KTUR 180745Z 19007KT 04/02 A2993 RMK A01 T00430018  RH  085%=      5-min Rain = 0
KTUR 180750Z 20008KT 04/02 A2993 RMK A01 T00430018  RH  084%=      5-min Rain = 0
KTUR 180755Z 20009KT 05/02 A2993 RMK A01 T00490019  RH  082%=      5-min Rain = 0
KTUR 180800Z 20009KT 06/02 A2992 RMK A01 T00570016  RH  076%=      5-min Rain = 0
KTUR 180805Z 20010KT 07/01 A2992 RMK A01 T00690012  RH  068%=      5-min Rain = 0
KTUR 180810Z 20010KT 07/01 A2992 RMK A01 T00720010  RH  066%=      5-min Rain = 0
KTUR 180815Z 21009KT 07/01 A2992 RMK A01 T00700008  RH  065%=      5-min Rain = 0
KTUR 180820Z 21008KT 07/01 A2991 RMK A01 T00660006  RH  066%=      5-min Rain = 0
KTUR 180825Z 21009KT 07/01 A2991 RMK A01 T00660006  RH  066%=      5-min Rain = 0
KTUR 180830Z 21010KT 07/01 A2991 RMK A01 T00690008  RH  066%=      5-min Rain = 0
KTUR 180835Z 21010KT 07/01 A2991 RMK A01 T00740009  RH  064%=      5-min Rain = 0
KTUR 180840Z 21011KT 08/01 A299 RMK A01 T00760009  RH  063%=      5-min Rain = 0
KTUR 180845Z 20011KT 08/01 A299 RMK A01 T00780009  RH  063%=      5-min Rain = 0
KTUR 180850Z 20011KT 08/01 A299 RMK A01 T00790009  RH  062%=      5-min Rain = 0
KTUR 180855Z 20012KT 08/01 A299 RMK A01 T00790009  RH  062%=      5-min Rain = 0
KTUR 180900Z 19012KT 08/01 A2989 RMK A01 T00790009  RH  062%=      5-min Rain = 0
KTUR 180905Z 19012KT 08/01 A2989 RMK A01 T00800008  RH  061%=      5-min Rain = 0
KTUR 180910Z 20012KT 08/01 A2989 RMK A01 T00820009  RH  061%=      5-min Rain = 0
KTUR 180915Z 20013KT 09/01 A2989 RMK A01 T00860009  RH  059%=      5-min Rain = 0
KTUR 180920Z 20014KT 09/01 A2988 RMK A01 T00870009  RH  059%=      5-min Rain = 0
KTUR 180925Z 21013KT 09/01 A2988 RMK A01 T00870008  RH  058%=      5-min Rain = 0
KTUR 180930Z 21014KT 09/01 A2988 RMK A01 T00850008  RH  059%=      5-min Rain = 0
KTUR 180935Z 20015KT 09/01 A2988 RMK A01 T00870008  RH  058%=      5-min Rain = 0
KTUR 180940Z 21014KT 09/01 A2987 RMK A01 T00870007  RH  058%=      5-min Rain = 0
KTUR 180945Z 21013KT 08/01 A2987 RMK A01 T00830006  RH  059%=      5-min Rain = 0
KTUR 180950Z 21012KT 08/01 A2987 RMK A01 T00810006  RH  060%=      5-min Rain = 0
KTUR 180955Z 23013KT 08/01 A2987 RMK A01 T00790006  RH  061%=      5-min Rain = 0
KTUR 181000Z 23012KT 08/01 A2987 RMK A01 T00760005  RH  061%=      5-min Rain = 0
KTUR 181005Z 23014G19KT 08/00 A2987 RMK A01 T00760004  RH  061%=      5-min Rain = 0
KTUR 181010Z 22015KT 08/00 A2987 RMK A01 T00760003  RH  060%=      5-min Rain = 0
KTUR 181015Z 22013KT 07/00 A2987 RMK A01 T00720002  RH  062%=      5-min Rain = 0
KTUR 181020Z 22010KT 07/00 A2986 RMK A01 T00650001  RH  064%=      5-min Rain = 0
KTUR 181025Z 22009KT 06/00 A2986 RMK A01 T006000-0  RH  066%=      5-min Rain = 0
KTUR 181030Z 22009KT 06/M00 A2986 RMK A01 T00551001  RH  068%=      5-min Rain = 0
KTUR 181035Z 21008KT 05/M00 A2985 RMK A01 T00511002  RH  070%=      5-min Rain = 0
KTUR 181040Z 21008KT 05/M00 A2984 RMK A01 T00481002  RH  071%=      5-min Rain = 0
KTUR 181045Z 21008KT 05/M00 A2984 RMK A01 T00471002  RH  071%=      5-min Rain = 0
KTUR 181050Z 22008KT 05/M00 A2984 RMK A01 T00451003  RH  072%=      5-min Rain = 0
KTUR 181055Z 21009KT 05/M00 A2984 RMK A01 T00451002  RH  073%=      5-min Rain = 0
KTUR 181100Z 20010KT 05/00 A2984 RMK A01 T00500000  RH  071%=      5-min Rain = 0
KTUR 181105Z 20011KT 05/00 A2983 RMK A01 T00530000  RH  070%=      5-min Rain = 0
KTUR 181110Z 20012KT 06/00 A2982 RMK A01 T00550002  RH  069%=      5-min Rain = 0
KTUR 181115Z 20013KT 06/00 A2982 RMK A01 T00570003  RH  069%=      5-min Rain = 0
KTUR 181120Z 20013KT 06/00 A2981 RMK A01 T00600004  RH  068%=      5-min Rain = 0
KTUR 181125Z 20013KT 06/00 A2981 RMK A01 T00590004  RH  068%=      5-min Rain = 0
KTUR 181130Z 20012KT 06/00 A298 RMK A01 T00600004  RH  068%=      5-min Rain = 0
KTUR 181135Z 20012KT 06/01 A298 RMK A01 T00630005  RH  067%=      5-min Rain = 0
KTUR 181140Z 20013KT 06/01 A298 RMK A01 T00640005  RH  067%=      5-min Rain = 0
KTUR 181145Z 20013KT 07/01 A2979 RMK A01 T00670005  RH  065%=      5-min Rain = 0
KTUR 181150Z 20013KT 07/01 A2979 RMK A01 T00710005  RH  064%=      5-min Rain = 0
KTUR 181155Z 21014KT 07/01 A2979 RMK A01 T00730005  RH  063%=      5-min Rain = 0
KTUR 181200Z 21013KT 07/01 A2979 RMK A01 T00730005  RH  062%=      5-min Rain = 0
KTUR 181205Z 21013KT 07/00 A2978 RMK A01 T00720004  RH  063%=      5-min Rain = 0
KTUR 181210Z 20012KT 07/00 A2978 RMK A01 T00710004  RH  063%=      5-min Rain = 0
KTUR 181215Z 20012KT 07/00 A2978 RMK A01 T00720003  RH  062%=      5-min Rain = 0
KTUR 181220Z 20012KT 07/00 A2977 RMK A01 T00720003  RH  062%=      5-min Rain = 0
KTUR 181225Z 20013KT 07/00 A2978 RMK A01 T00720002  RH  062%=      5-min Rain = 0
KTUR 181230Z 20013KT 07/00 A2977 RMK A01 T00700002  RH  063%=      5-min Rain = 0
KTUR 181235Z 20013KT 07/00 A2977 RMK A01 T00690001  RH  063%=      5-min Rain = 0
KTUR 181240Z 20013KT 07/00 A2977 RMK A01 T00680000  RH  063%=      5-min Rain = 0
KTUR 181245Z 19014KT 07/M00 A2976 RMK A01 T00701001  RH  062%=      5-min Rain = 0
KTUR 181250Z 19015KT 07/M00 A2976 RMK A01 T00711002  RH  060%=      5-min Rain = 0
KTUR 181255Z 20013KT 07/M00 A2976 RMK A01 T00711002  RH  061%=      5-min Rain = 0
KTUR 181300Z 21014KT 07/M00 A2977 RMK A01 T00701002  RH  061%=      5-min Rain = 0
KTUR 181305Z 21014KT 07/M00 A2977 RMK A01 T00691002  RH  061%=      5-min Rain = 0
KTUR 181310Z 21014KT 07/M00 A2978 RMK A01 T00711002  RH  060%=      5-min Rain = 0
KTUR 181315Z 22012KT 07/M00 A2978 RMK A01 T00701002  RH  061%=      5-min Rain = 0
KTUR 181320Z 22012KT 07/M00 A2978 RMK A01 T00681002  RH  062%=      5-min Rain = 0
KTUR 181325Z 22011KT 07/M00 A2978 RMK A01 T00671002  RH  062%=      5-min Rain = 0
KTUR 181330Z 23012KT 07/M00 A2978 RMK A01 T00701001  RH  061%=      5-min Rain = 0
KTUR 181335Z 24012KT 08/M00 A2978 RMK A01 T00761002  RH  058%=      5-min Rain = 0
KTUR 181340Z 23012KT 08/M00 A2978 RMK A01 T00811002  RH  056%=      5-min Rain = 0
KTUR 181345Z 23012KT 08/M00 A2978 RMK A01 T00831003  RH  055%=      5-min Rain = 0
KTUR 181350Z 22011KT 08/M00 A2978 RMK A01 T00811002  RH  056%=      5-min Rain = 0
KTUR 181355Z 22010KT 08/M00 A2978 RMK A01 T00801002  RH  057%=      5-min Rain = 0
KTUR 181400Z 22009KT 08/M00 A2977 RMK A01 T00781002  RH  057%=      5-min Rain = 0
KTUR 181405Z 21009KT 08/M00 A2977 RMK A01 T00781002  RH  058%=      5-min Rain = 0
KTUR 181410Z 21009KT 08/M00 A2976 RMK A01 T00801001  RH  057%=      5-min Rain = 0
KTUR 181415Z 20009KT 08/M00 A2976 RMK A01 T00811001  RH  057%=      5-min Rain = 0
KTUR 181420Z 20011KT 09/00 A2977 RMK A01 T008500-0  RH  056%=      5-min Rain = 0
KTUR 181425Z 20011KT 09/M00 A2976 RMK A01 T00871001  RH  055%=      5-min Rain = 0
KTUR 181430Z 20011KT 09/M00 A2976 RMK A01 T00901001  RH  054%=      5-min Rain = 0
KTUR 181435Z 20009KT 09/00 A2976 RMK A01 T00890001  RH  055%=      5-min Rain = 0
KTUR 181440Z 19010KT 09/00 A2976 RMK A01 T00890001  RH  055%=      5-min Rain = 0
KTUR 181445Z 20011KT 09/00 A2975 RMK A01 T00910000  RH  053%=      5-min Rain = 0
KTUR 181450Z 21011KT 09/00 A2975 RMK A01 T009100-0  RH  053%=      5-min Rain = 0
KTUR 181455Z 21014KT 09/M00 A2974 RMK A01 T00941001  RH  052%=      5-min Rain = 0
KTUR 181500Z 22013KT 09/M00 A2974 RMK A01 T00941001  RH  052%=      5-min Rain = 0
KTUR 181505Z 22014KT 09/M00 A2974 RMK A01 T00941001  RH  052%=      5-min Rain = 0
KTUR 181510Z 22016KT 10/M00 A2974 RMK A01 T00961001  RH  052%=      5-min Rain = 0
KTUR 181515Z 22014KT 10/00 A2974 RMK A01 T00980001  RH  052%=      5-min Rain = 0
KTUR 181520Z 22015KT 10/00 A2974 RMK A01 T01010002  RH  051%=      5-min Rain = 0
KTUR 181525Z 22014KT 11/00 A2974 RMK A01 T01070004  RH  049%=      5-min Rain = 0
KTUR 181530Z 23014KT 11/00 A2974 RMK A01 T01070003  RH  049%=      5-min Rain = 0
KTUR 181535Z 23015KT 11/00 A2974 RMK A01 T01140004  RH  047%=      5-min Rain = 0
KTUR 181540Z 23016G21KT 12/00 A2974 RMK A01 T01210004  RH  045%=      5-min Rain = 0
KTUR 181545Z 22016KT 13/01 A2973 RMK A01 T01260005  RH  044%=      5-min Rain = 0
KTUR 181550Z 22016G21KT 13/00 A2973 RMK A01 T01340004  RH  042%=      5-min Rain = 0
KTUR 181555Z 22017KT 14/00 A2974 RMK A01 T01370003  RH  040%=      5-min Rain = 0
KTUR 181600Z 22016KT 14/00 A2973 RMK A01 T01410003  RH  039%=      5-min Rain = 0
KTUR 181605Z 22016G21KT 15/00 A2973 RMK A01 T01480003  RH  038%=      5-min Rain = 0
KTUR 181610Z 23017G24KT 15/00 A2972 RMK A01 T01540003  RH  036%=      5-min Rain = 0
KTUR 181615Z 23022G27KT 16/M00 A2972 RMK A01 T01621003  RH  033%=      5-min Rain = 0
KTUR 181620Z 23021G26KT 16/M00 A2972 RMK A01 T01621004  RH  033%=      5-min Rain = 0
KTUR 181625Z 23022G29KT 16/M01 A2972 RMK A01 T01611006  RH  033%=      5-min Rain = 0
KTUR 181630Z 23021G27KT 16/M01 A2972 RMK A01 T01601005  RH  033%=      5-min Rain = 0
KTUR 181635Z 23023G28KT 16/M00 A2971 RMK A01 T01601003  RH  033%=      5-min Rain = 0
KTUR 181640Z 23021G26KT 16/00 A2971 RMK A01 T01580000  RH  034%=      5-min Rain = 0
KTUR 181645Z 23020G25KT 16/01 A2971 RMK A01 T01640005  RH  034%=      5-min Rain = 0
KTUR 181650Z 23023G29KT 17/01 A297 RMK A01 T01690007  RH  034%=      5-min Rain = 0
KTUR 181655Z 23020G25KT 17/01 A297 RMK A01 T01720009  RH  034%=      5-min Rain = 0
KTUR 181700Z 23022G28KT 18/01 A297 RMK A01 T01780011  RH  033%=      5-min Rain = 0
KTUR 181705Z 24021G30KT 19/01 A2969 RMK A01 T01880012  RH  031%=      5-min Rain = 0
KTUR 181710Z 25025G31KT 19/01 A2969 RMK A01 T01930012  RH  030%=      5-min Rain = 0
KTUR 181715Z 25025G32KT 20/01 A2969 RMK A01 T01980013  RH  029%=      5-min Rain = 0
KTUR 181720Z 24026G34KT 20/01 A2968 RMK A01 T01990009  RH  028%=      5-min Rain = 0
KTUR 181725Z 24025G34KT 20/01 A2968 RMK A01 T02030007  RH  027%=      5-min Rain = 0
KTUR 181730Z 24026G35KT 21/01 A2967 RMK A01 T02050006  RH  027%=      5-min Rain = 0
KTUR 181735Z 23028G41KT 21/00 A2967 RMK A01 T02050004  RH  026%=      5-min Rain = 0
KTUR 181740Z 24025G32KT 21/00 A2967 RMK A01 T02060004  RH  026%=      5-min Rain = 0
KTUR 181745Z 24028G36KT 21/00 A2966 RMK A01 T02070003  RH  026%=      5-min Rain = 0
KTUR 181750Z 24032G38KT 21/00 A2966 RMK A01 T02050001  RH  026%=      5-min Rain = 0
KTUR 181755Z 23027G36KT 21/00 A2966 RMK A01 T02070003  RH  026%=      5-min Rain = 0
KTUR 181800Z 23027G36KT 21/00 A2965 RMK A01 T02090004  RH  026%=      5-min Rain = 0
KTUR 181805Z 23030G40KT 21/00 A2965 RMK A01 T02110004  RH  025%=      5-min Rain = 0
KTUR 181810Z 24036G44KT 21/00 A2964 RMK A01 T02070001  RH  026%=      5-min Rain = 0
KTUR 181815Z 23035G45KT 21/00 A2963 RMK A01 T02060003  RH  026%=      5-min Rain = 0
KTUR 181820Z 23030G42KT 21/00 A2963 RMK A01 T02090004  RH  026%=      5-min Rain = 0
KTUR 181825Z 24033G40KT 21/00 A2963 RMK A01 T02090002  RH  025%=      5-min Rain = 0
KTUR 181830Z 24032G41KT 21/00 A2962 RMK A01 T02080002  RH  025%=      5-min Rain = 0
KTUR 181835Z 24030G38KT 21/00 A2962 RMK A01 T02110003  RH  025%=      5-min Rain = 0
KTUR 181840Z 24030G40KT 21/01 A2961 RMK A01 T02120005  RH  025%=      5-min Rain = 0
KTUR 181845Z 23032G39KT 21/00 A2961 RMK A01 T02110003  RH  025%=      5-min Rain = 0
KTUR 181850Z 23032G40KT 21/00 A296 RMK A01 T02110003  RH  025%=      5-min Rain = 0
KTUR 181855Z 23031G37KT 21/00 A296 RMK A01 T02110004  RH  026%=      5-min Rain = 0
KTUR 181900Z 23033G42KT 21/01 A2959 RMK A01 T02100005  RH  026%=      5-min Rain = 0
KTUR 181905Z 23033G41KT 21/01 A2959 RMK A01 T02110005  RH  026%=      5-min Rain = 0
KTUR 181910Z 24032G40KT 21/00 A2958 RMK A01 T02110004  RH  025%=      5-min Rain = 0
KTUR 181915Z 23031G42KT 21/00 A2958 RMK A01 T02140004  RH  025%=      5-min Rain = 0
KTUR 181920Z 23033G43KT 21/M00 A2958 RMK A01 T02121002  RH  024%=      5-min Rain = 0
KTUR 181925Z 23034G42KT 21/M00 A2958 RMK A01 T02131001  RH  024%=      5-min Rain = 0
KTUR 181930Z 23031G38KT 21/M00 A2957 RMK A01 T02141001  RH  024%=      5-min Rain = 0
KTUR 181935Z 23030G37KT 22/00 A2957 RMK A01 T02150000  RH  024%=      5-min Rain = 0
KTUR 181940Z 23030G36KT 22/00 A2956 RMK A01 T021600-0  RH  024%=      5-min Rain = 0
KTUR 181945Z 24027G35KT 22/M01 A2956 RMK A01 T02181005  RH  023%=      5-min Rain = 0
KTUR 181950Z 24028G35KT 22/M00 A2956 RMK A01 T02181002  RH  023%=      5-min Rain = 0
KTUR 181955Z 24032G42KT 22/00 A2956 RMK A01 T02160001  RH  024%=      5-min Rain = 0
KTUR 182000Z 24031G40KT 21/01 A2956 RMK A01 T02140006  RH  025%=      5-min Rain = 0
KTUR 182005Z 24034G41KT 21/01 A2956 RMK A01 T02130007  RH  026%=      5-min Rain = 0
KTUR 182010Z 23036G43KT 21/01 A2956 RMK A01 T02110008  RH  026%=      5-min Rain = 0
KTUR 182015Z 23031G38KT 21/01 A2956 RMK A01 T02120009  RH  026%=      5-min Rain = 0
KTUR 182020Z 24026G35KT 21/01 A2956 RMK A01 T02140010  RH  026%=      5-min Rain = 0
KTUR 182025Z 24032G38KT 21/00 A2955 RMK A01 T02130003  RH  025%=      5-min Rain = 0
KTUR 182030Z 24029G38KT 21/M01 A2955 RMK A01 T02141008  RH  023%=      5-min Rain = 0
KTUR 182035Z 24027G34KT 22/00 A2955 RMK A01 T02160001  RH  024%=      5-min Rain = 0
KTUR 182040Z 25028G33KT 22/M01 A2956 RMK A01 T02151007  RH  023%=      5-min Rain = 0
KTUR 182045Z 24029G38KT 21/M01 A2955 RMK A01 T02141010  RH  022%=      5-min Rain = 0
KTUR 182050Z 24029G36KT 22/M01 A2955 RMK A01 T02161007  RH  023%=      5-min Rain = 0
KTUR 182055Z 24028G37KT 21/M00 A2955 RMK A01 T02141003  RH  024%=      5-min Rain = 0
KTUR 182100Z 23029G36KT 21/00 A2955 RMK A01 T02140002  RH  025%=      5-min Rain = 0
KTUR 182105Z 23029G38KT 21/00 A2955 RMK A01 T02140003  RH  025%=      5-min Rain = 0
KTUR 182110Z 23028G35KT 21/00 A2956 RMK A01 T02130001  RH  025%=      5-min Rain = 0
KTUR 182115Z 23026G33KT 21/M00 A2956 RMK A01 T02141003  RH  024%=      5-min Rain = 0
KTUR 182120Z 24028G34KT 21/M01 A2956 RMK A01 T02101005  RH  024%=      5-min Rain = 0
KTUR 182125Z 24028G37KT 21/M01 A2956 RMK A01 T02071009  RH  024%=      5-min Rain = 0
KTUR 182130Z 24030G35KT 20/M01 A2956 RMK A01 T02031009  RH  024%=      5-min Rain = 0
KTUR 182135Z 24028G33KT 20/M01 A2957 RMK A01 T02011007  RH  025%=      5-min Rain = 0
KTUR 182140Z 24026G32KT 20/M01 A2957 RMK A01 T02001005  RH  026%=      5-min Rain = 0
KTUR 182145Z 24025G33KT 20/M00 A2958 RMK A01 T01981001  RH  027%=      5-min Rain = 0
KTUR 182150Z 23023G28KT 20/00 A2958 RMK A01 T01970001  RH  027%=      5-min Rain = 0
KTUR 182155Z 23025G32KT 20/M00 A2957 RMK A01 T01961002  RH  027%=      5-min Rain = 0
KTUR 182200Z 23024G29KT 20/M00 A2957 RMK A01 T01951003  RH  027%=      5-min Rain = 0
KTUR 182205Z 23021G28KT 19/M00 A2958 RMK A01 T01941001  RH  027%=      5-min Rain = 0
KTUR 182210Z 23023G30KT 19/M00 A2958 RMK A01 T01931001  RH  027%=      5-min Rain = 0
KTUR 182215Z 23023G30KT 20/M00 A2958 RMK A01 T01951001  RH  027%=      5-min Rain = 0
KTUR 182220Z 23025G32KT 20/M00 A2958 RMK A01 T01961003  RH  026%=      5-min Rain = 0
KTUR 182225Z 24024G29KT 20/M00 A2958 RMK A01 T01971004  RH  026%=      5-min Rain = 0
KTUR 182230Z 23024G30KT 20/M01 A2958 RMK A01 T01961006  RH  026%=      5-min Rain = 0
KTUR 182235Z 23026G32KT 19/M01 A2958 RMK A01 T01941010  RH  026%=      5-min Rain = 0
KTUR 182240Z 23024G31KT 19/M01 A2958 RMK A01 T01921007  RH  027%=      5-min Rain = 0
KTUR 182245Z 23022G27KT 19/M00 A2958 RMK A01 T01901003  RH  027%=      5-min Rain = 0
KTUR 182250Z 24021G26KT 19/M00 A2958 RMK A01 T01901002  RH  028%=      5-min Rain = 0
KTUR 182255Z 24020G25KT 19/M00 A2958 RMK A01 T01891002  RH  028%=      5-min Rain = 0
KTUR 182300Z 23019G25KT 19/M00 A2958 RMK A01 T01881001  RH  028%=      5-min Rain = 0
KTUR 182305Z 24017G23KT 19/00 A2958 RMK A01 T018500-0  RH  029%=      5-min Rain = 0
KTUR 182310Z 24020G25KT 18/00 A2958 RMK A01 T01840001  RH  029%=      5-min Rain = 0
KTUR 182315Z 24021G30KT 18/00 A2958 RMK A01 T01830003  RH  030%=      5-min Rain = 0
KTUR 182320Z 24024G31KT 18/00 A2958 RMK A01 T01810001  RH  030%=      5-min Rain = 0
KTUR 182325Z 24021KT 18/00 A2958 RMK A01 T01800001  RH  030%=      5-min Rain = 0
KTUR 182330Z 24019G24KT 18/00 A2958 RMK A01 T017900-0  RH  030%=      5-min Rain = 0
KTUR 182335Z 24016G21KT 18/M00 A2959 RMK A01 T01771001  RH  030%=      5-min Rain = 0
KTUR 182340Z 24020G25KT 18/M01 A2959 RMK A01 T01771006  RH  029%=      5-min Rain = 0
KTUR 182345Z 24019G28KT 18/M01 A2959 RMK A01 T01781012  RH  028%=      5-min Rain = 0
KTUR 182350Z 24018KT 18/M01 A296 RMK A01 T01781014  RH  027%=      5-min Rain = 0
KTUR 182355Z 24017G22KT 18/M02 A296 RMK A01 T01771018  RH  027%=      5-min Rain = 0
KTUR 190000Z 25016G22KT 18/M03 A296 RMK A01 T01761025  RH  026%=      5-min Rain = 0
KTUR 190005Z 26014G19KT 17/M03 A296 RMK A01 T01741026  RH  026%=      5-min Rain = 0
KTUR 190010Z 26012KT 17/M03 A296 RMK A01 T01711025  RH  026%=      5-min Rain = 0
KTUR 190015Z 30019G33KT 16/M02 A2961 RMK A01 T01581017  RH  031%=      5-min Rain = 0
KTUR 190020Z 33026G34KT 11/00 A2963 RMK A01 T01140000  RH  046%=      5-min Rain = 0
KTUR 190025Z 32023G28KT 10/00 A2965 RMK A01 T00990003  RH  052%=      5-min Rain = 0
KTUR 190030Z 32021G26KT 09/00 A2966 RMK A01 T00930003  RH  054%=      5-min Rain = 0
KTUR 190035Z 32025G35KT 09/00 A2967 RMK A01 T00890003  RH  056%=      5-min Rain = 0
KTUR 190040Z 32028G35KT 08/00 A2968 RMK A01 T00810002  RH  058%=      5-min Rain = 0
KTUR 190045Z 32030G37KT 07/00 A2968 RMK A01 T00740000  RH  060%=      5-min Rain = 0
KTUR 190050Z 32029G38KT 07/00 A2969 RMK A01 T006900-0  RH  062%=      5-min Rain = 0
KTUR 190055Z 32028G34KT 06/M00 A297 RMK A01 T00641001  RH  064%=      5-min Rain = 0
KTUR 190100Z 32031G39KT 06/M00 A297 RMK A01 T00601001  RH  065%=      5-min Rain = 0
KTUR 190105Z 32030G39KT 06/M00 A2971 RMK A01 T00561002  RH  067%=      5-min Rain = 0
KTUR 190110Z 32030G39KT 05/M00 A2971 RMK A01 T00531003  RH  068%=      5-min Rain = 0
KTUR 190115Z 32031G39KT 05/M00 A2971 RMK A01 T00511003  RH  069%=      5-min Rain = 0
KTUR 190120Z 32031G40KT 05/M00 A2972 RMK A01 T00481004  RH  070%=      5-min Rain = 0
KTUR 190125Z 33032G39KT 05/M00 A2972 RMK A01 T00461004  RH  071%=      5-min Rain = 0
KTUR 190130Z 32031G38KT 05/M00 A2973 RMK A01 T00471004  RH  070%=      5-min Rain = 0
KTUR 190135Z 32032G44KT 05/M00 A2975 RMK A01 T00471004  RH  070%=      5-min Rain = 0
KTUR 190140Z 32031G40KT 05/M00 A2975 RMK A01 T00471004  RH  070%=      5-min Rain = 0
KTUR 190145Z 31028G37KT 05/M00 A2975 RMK A01 T00471004  RH  070%=      5-min Rain = 0
KTUR 190150Z 32032G42KT 05/M00 A2976 RMK A01 T00461004  RH  070%=      5-min Rain = 0
KTUR 190155Z 32032G42KT 05/M01 A2976 RMK A01 T00451005  RH  071%=      5-min Rain = 0
KTUR 190200Z 32033G42KT 04/M01 A2976 RMK A01 T00441005  RH  071%=      5-min Rain = 0
KTUR 190205Z 32032G42KT 04/M01 A2977 RMK A01 T00441005  RH  072%=      5-min Rain = 0
KTUR 190210Z 32034G42KT 04/M01 A2977 RMK A01 T00431005  RH  072%=      5-min Rain = 0
KTUR 190215Z 32036G45KT 04/M01 A2978 RMK A01 T00421005  RH  072%=      5-min Rain = 0
KTUR 190220Z 32029G41KT 04/M01 A2979 RMK A01 T00421005  RH  072%=      5-min Rain = 0
KTUR 190225Z 32029G39KT 04/M01 A298 RMK A01 T00421005  RH  072%=      5-min Rain = 0
KTUR 190230Z 31028G35KT 04/M01 A298 RMK A01 T00411005  RH  073%=      5-min Rain = 0
KTUR 190235Z 32028G36KT 04/M01 A2981 RMK A01 T00401006  RH  073%=      5-min Rain = 0
KTUR 190240Z 32026G34KT 04/M01 A2982 RMK A01 T00401006  RH  073%=      5-min Rain = 0
KTUR 190245Z 31030G36KT 04/M01 A2983 RMK A01 T00381007  RH  073%=      5-min Rain = 0
KTUR 190250Z 32030G40KT 04/M01 A2984 RMK A01 T00381008  RH  073%=      5-min Rain = 0
KTUR 190255Z 32026G34KT 04/M01 A2984 RMK A01 T00381009  RH  072%=      5-min Rain = 0
KTUR 190300Z 32026G33KT 04/M01 A2984 RMK A01 T00381010  RH  071%=      5-min Rain = 0
KTUR 190305Z 32027G37KT 04/M01 A2984 RMK A01 T00381012  RH  070%=      5-min Rain = 0
KTUR 190310Z 32028G36KT 04/M02 A2984 RMK A01 T00371015  RH  069%=      5-min Rain = 0
KTUR 190315Z 32029G43KT 04/M02 A2984 RMK A01 T00361019  RH  068%=      5-min Rain = 0
KTUR 190320Z 32033G42KT 03/M02 A2984 RMK A01 T00341023  RH  067%=      5-min Rain = 0
KTUR 190325Z 32030G44KT 03/M02 A2985 RMK A01 T00341024  RH  067%=      5-min Rain = 0
KTUR 190330Z 32031G39KT 03/M02 A2985 RMK A01 T00341023  RH  067%=      5-min Rain = 0
KTUR 190335Z 32029G37KT 03/M02 A2986 RMK A01 T00331023  RH  067%=      5-min Rain = 0
KTUR 190340Z 32029G37KT 03/M02 A2986 RMK A01 T00331024  RH  067%=      5-min Rain = 0
KTUR 190345Z 32031G42KT 03/M03 A2986 RMK A01 T00321025  RH  067%=      5-min Rain = 0
KTUR 190350Z 32032G43KT 03/M03 A2987 RMK A01 T00311026  RH  067%=      5-min Rain = 0
KTUR 190355Z 32033G44KT 03/M03 A2988 RMK A01 T00311026  RH  067%=      5-min Rain = 0
KTUR 190400Z 32030G40KT 03/M03 A2989 RMK A01 T00311026  RH  067%=      5-min Rain = 0
KTUR 190405Z 32029G37KT 03/M03 A299 RMK A01 T00301025  RH  068%=      5-min Rain = 0
KTUR 190410Z 32028G35KT 03/M03 A299 RMK A01 T00301026  RH  068%=      5-min Rain = 0
KTUR 190415Z 31025G31KT 03/M03 A2991 RMK A01 T00291025  RH  068%=      5-min Rain = 0
KTUR 190420Z 32025G42KT 03/M03 A2992 RMK A01 T00281025  RH  069%=      5-min Rain = 0
KTUR 190425Z 32029G37KT 03/M03 A2992 RMK A01 T00271028  RH  068%=      5-min Rain = 0
KTUR 190430Z 32030G38KT 03/M03 A2993 RMK A01 T00271028  RH  068%=      5-min Rain = 0
KTUR 190435Z 32028G34KT 03/M03 A2993 RMK A01 T00271027  RH  069%=      5-min Rain = 0
KTUR 190440Z 31026G33KT 03/M03 A2994 RMK A01 T00261026  RH  069%=      5-min Rain = 0
KTUR 190445Z 31025G33KT 02/M03 A2995 RMK A01 T00241025  RH  071%=      5-min Rain = 0
KTUR 190450Z 32024G35KT 02/M02 A2996 RMK A01 T00211023  RH  074%=      5-min Rain = 0
KTUR 190455Z 32024G31KT 02/M02 A2996 RMK A01 T00201023  RH  074%=      5-min Rain = 0
KTUR 190500Z 32027G37KT 02/M02 A2996 RMK A01 T00181022  RH  076%=      5-min Rain = 0
KTUR 190505Z 32028G34KT 01/M02 A2997 RMK A01 T00141020  RH  079%=      5-min Rain = 0
KTUR 190510Z 32027G35KT 01/M02 A2997 RMK A01 T00101017  RH  084%=      5-min Rain = 0
KTUR 190515Z 32027G34KT 01/M02 A2997 RMK A01 T00081016  RH  085%=      5-min Rain = 0
KTUR 190520Z 32024G30KT 01/M01 A2998 RMK A01 T00061014  RH  088%=      5-min Rain = 0
KTUR 190525Z 32024G32KT 01/M02 A2998 RMK A01 T00071015  RH  086%=      5-min Rain = 0
KTUR 190530Z 32021G27KT 01/M02 A2999 RMK A01 T00101017  RH  083%=      5-min Rain = 0
KTUR 190535Z 32026G37KT 01/M02 A2999 RMK A01 T00121020  RH  080%=      5-min Rain = 0
KTUR 190540Z 32024G33KT 01/M02 A2999 RMK A01 T00131022  RH  078%=      5-min Rain = 0
KTUR 190545Z 32027G42KT 01/M02 A2999 RMK A01 T00131024  RH  077%=      5-min Rain = 0
KTUR 190550Z 32025G33KT 01/M02 A30 RMK A01 T00141024  RH  077%=      5-min Rain = 0
KTUR 190555Z 32021G26KT 01/M02 A30 RMK A01 T00141023  RH  077%=      5-min Rain = 0

Page generated in 0.0332 seconds.